sensor_id;sensor_type;location;lat;lon;timestamp;P1;durP1;ratioP1;P2;durP2;ratioP2
6821;SDS011;3449;48.728;8.968;2023-05-09T00:01:37;23.63;;;13.87;;
6821;SDS011;3449;48.728;8.968;2023-05-09T00:04:05;20.57;;;12.87;;
6821;SDS011;3449;48.728;8.968;2023-05-09T00:06:32;23.40;;;14.50;;
6821;SDS011;3449;48.728;8.968;2023-05-09T00:08:59;20.30;;;12.23;;
6821;SDS011;3449;48.728;8.968;2023-05-09T00:11:26;20.00;;;12.90;;
6821;SDS011;3449;48.728;8.968;2023-05-09T00:13:54;23.27;;;13.00;;
6821;SDS011;3449;48.728;8.968;2023-05-09T00:16:22;22.37;;;13.10;;
6821;SDS011;3449;48.728;8.968;2023-05-09T00:18:50;22.23;;;12.37;;
6821;SDS011;3449;48.728;8.968;2023-05-09T00:21:17;21.77;;;13.33;;
6821;SDS011;3449;48.728;8.968;2023-05-09T00:23:45;23.47;;;12.93;;
6821;SDS011;3449;48.728;8.968;2023-05-09T00:26:11;18.10;;;12.50;;
6821;SDS011;3449;48.728;8.968;2023-05-09T00:28:38;20.77;;;12.87;;
6821;SDS011;3449;48.728;8.968;2023-05-09T00:31:07;22.27;;;13.33;;
6821;SDS011;3449;48.728;8.968;2023-05-09T00:33:33;21.37;;;13.30;;
6821;SDS011;3449;48.728;8.968;2023-05-09T00:36:00;23.93;;;12.60;;
6821;SDS011;3449;48.728;8.968;2023-05-09T00:38:27;22.27;;;13.10;;
6821;SDS011;3449;48.728;8.968;2023-05-09T00:40:54;24.10;;;13.27;;
6821;SDS011;3449;48.728;8.968;2023-05-09T00:43:21;21.60;;;12.67;;
6821;SDS011;3449;48.728;8.968;2023-05-09T00:45:48;23.17;;;14.57;;
6821;SDS011;3449;48.728;8.968;2023-05-09T00:48:16;20.43;;;13.53;;
6821;SDS011;3449;48.728;8.968;2023-05-09T00:50:43;28.27;;;13.80;;
6821;SDS011;3449;48.728;8.968;2023-05-09T00:53:11;23.10;;;14.60;;
6821;SDS011;3449;48.728;8.968;2023-05-09T00:55:38;22.63;;;13.83;;
6821;SDS011;3449;48.728;8.968;2023-05-09T00:58:05;24.70;;;13.77;;
6821;SDS011;3449;48.728;8.968;2023-05-09T01:00:32;22.37;;;14.43;;
6821;SDS011;3449;48.728;8.968;2023-05-09T01:02:59;22.50;;;13.33;;
6821;SDS011;3449;48.728;8.968;2023-05-09T01:05:28;21.30;;;13.60;;
6821;SDS011;3449;48.728;8.968;2023-05-09T01:08:06;23.23;;;15.10;;
6821;SDS011;3449;48.728;8.968;2023-05-09T01:10:37;23.47;;;13.17;;
6821;SDS011;3449;48.728;8.968;2023-05-09T01:13:11;21.57;;;14.00;;
6821;SDS011;3449;48.728;8.968;2023-05-09T01:15:45;23.70;;;13.90;;
6821;SDS011;3449;48.728;8.968;2023-05-09T01:18:20;22.13;;;14.57;;
6821;SDS011;3449;48.728;8.968;2023-05-09T01:20:59;24.90;;;13.80;;
6821;SDS011;3449;48.728;8.968;2023-05-09T01:23:40;29.60;;;15.00;;
6821;SDS011;3449;48.728;8.968;2023-05-09T01:26:42;25.93;;;15.67;;
6821;SDS011;3449;48.728;8.968;2023-05-09T01:29:24;24.80;;;13.50;;
6821;SDS011;3449;48.728;8.968;2023-05-09T01:32:03;24.40;;;14.20;;
6821;SDS011;3449;48.728;8.968;2023-05-09T01:34:34;27.10;;;14.70;;
6821;SDS011;3449;48.728;8.968;2023-05-09T01:37:05;30.23;;;17.00;;
6821;SDS011;3449;48.728;8.968;2023-05-09T01:39:33;24.33;;;14.80;;
6821;SDS011;3449;48.728;8.968;2023-05-09T01:42:06;23.27;;;13.80;;
6821;SDS011;3449;48.728;8.968;2023-05-09T01:44:37;22.87;;;14.70;;
6821;SDS011;3449;48.728;8.968;2023-05-09T01:47:05;23.70;;;14.17;;
6821;SDS011;3449;48.728;8.968;2023-05-09T01:49:34;22.20;;;14.47;;
6821;SDS011;3449;48.728;8.968;2023-05-09T01:52:02;23.17;;;14.77;;
6821;SDS011;3449;48.728;8.968;2023-05-09T01:54:32;19.80;;;13.20;;
6821;SDS011;3449;48.728;8.968;2023-05-09T01:57:00;23.97;;;13.40;;
6821;SDS011;3449;48.728;8.968;2023-05-09T01:59:30;21.30;;;13.43;;
6821;SDS011;3449;48.728;8.968;2023-05-09T02:01:59;31.07;;;16.50;;
6821;SDS011;3449;48.728;8.968;2023-05-09T02:04:27;32.13;;;17.30;;
6821;SDS011;3449;48.728;8.968;2023-05-09T02:06:56;28.30;;;14.70;;
6821;SDS011;3449;48.728;8.968;2023-05-09T02:09:24;25.83;;;14.57;;
6821;SDS011;3449;48.728;8.968;2023-05-09T02:11:51;25.93;;;14.50;;
6821;SDS011;3449;48.728;8.968;2023-05-09T02:14:17;27.13;;;15.30;;
6821;SDS011;3449;48.728;8.968;2023-05-09T02:16:44;28.03;;;15.00;;
6821;SDS011;3449;48.728;8.968;2023-05-09T02:19:13;27.87;;;14.93;;
6821;SDS011;3449;48.728;8.968;2023-05-09T02:21:40;33.10;;;16.53;;
6821;SDS011;3449;48.728;8.968;2023-05-09T02:24:08;27.20;;;15.40;;
6821;SDS011;3449;48.728;8.968;2023-05-09T02:26:35;24.93;;;14.00;;
6821;SDS011;3449;48.728;8.968;2023-05-09T02:29:02;22.80;;;13.17;;
6821;SDS011;3449;48.728;8.968;2023-05-09T02:31:32;22.23;;;13.50;;
6821;SDS011;3449;48.728;8.968;2023-05-09T02:34:00;19.00;;;12.00;;
6821;SDS011;3449;48.728;8.968;2023-05-09T02:36:30;18.27;;;12.07;;
6821;SDS011;3449;48.728;8.968;2023-05-09T02:38:58;23.93;;;12.33;;
6821;SDS011;3449;48.728;8.968;2023-05-09T02:41:25;22.50;;;13.07;;
6821;SDS011;3449;48.728;8.968;2023-05-09T02:43:53;21.77;;;11.30;;
6821;SDS011;3449;48.728;8.968;2023-05-09T02:46:20;33.63;;;13.10;;
6821;SDS011;3449;48.728;8.968;2023-05-09T02:48:47;27.43;;;14.43;;
6821;SDS011;3449;48.728;8.968;2023-05-09T02:51:14;25.47;;;13.80;;
6821;SDS011;3449;48.728;8.968;2023-05-09T02:53:42;32.37;;;13.67;;
6821;SDS011;3449;48.728;8.968;2023-05-09T02:56:09;31.07;;;14.83;;
6821;SDS011;3449;48.728;8.968;2023-05-09T02:58:36;26.13;;;13.17;;
6821;SDS011;3449;48.728;8.968;2023-05-09T03:01:03;32.03;;;14.53;;
6821;SDS011;3449;48.728;8.968;2023-05-09T03:03:30;38.17;;;14.60;;
6821;SDS011;3449;48.728;8.968;2023-05-09T03:05:58;25.70;;;13.63;;
6821;SDS011;3449;48.728;8.968;2023-05-09T03:08:25;25.50;;;13.40;;
6821;SDS011;3449;48.728;8.968;2023-05-09T03:10:53;28.13;;;15.07;;
6821;SDS011;3449;48.728;8.968;2023-05-09T03:13:21;26.10;;;13.80;;
6821;SDS011;3449;48.728;8.968;2023-05-09T03:15:48;33.77;;;15.43;;
6821;SDS011;3449;48.728;8.968;2023-05-09T03:18:14;27.47;;;15.53;;
6821;SDS011;3449;48.728;8.968;2023-05-09T03:20:41;25.57;;;14.93;;
6821;SDS011;3449;48.728;8.968;2023-05-09T03:23:08;28.30;;;14.67;;
6821;SDS011;3449;48.728;8.968;2023-05-09T03:25:35;25.50;;;14.20;;
6821;SDS011;3449;48.728;8.968;2023-05-09T03:28:03;26.73;;;14.77;;
6821;SDS011;3449;48.728;8.968;2023-05-09T03:30:30;23.50;;;12.83;;
6821;SDS011;3449;48.728;8.968;2023-05-09T03:32:57;24.93;;;13.77;;
6821;SDS011;3449;48.728;8.968;2023-05-09T03:35:24;26.67;;;14.10;;
6821;SDS011;3449;48.728;8.968;2023-05-09T03:37:51;22.10;;;12.93;;
6821;SDS011;3449;48.728;8.968;2023-05-09T03:40:17;29.27;;;14.00;;
6821;SDS011;3449;48.728;8.968;2023-05-09T03:42:44;34.40;;;15.30;;
6821;SDS011;3449;48.728;8.968;2023-05-09T03:45:13;29.33;;;13.20;;
6821;SDS011;3449;48.728;8.968;2023-05-09T03:47:40;29.13;;;14.93;;
6821;SDS011;3449;48.728;8.968;2023-05-09T03:50:07;27.10;;;14.30;;
6821;SDS011;3449;48.728;8.968;2023-05-09T03:52:35;28.33;;;13.83;;
6821;SDS011;3449;48.728;8.968;2023-05-09T03:55:02;27.23;;;13.43;;
6821;SDS011;3449;48.728;8.968;2023-05-09T03:57:29;26.40;;;13.77;;
6821;SDS011;3449;48.728;8.968;2023-05-09T03:59:56;29.53;;;14.03;;
6821;SDS011;3449;48.728;8.968;2023-05-09T04:02:25;26.17;;;12.87;;
6821;SDS011;3449;48.728;8.968;2023-05-09T04:04:52;27.00;;;13.27;;
6821;SDS011;3449;48.728;8.968;2023-05-09T04:07:19;22.20;;;12.40;;
6821;SDS011;3449;48.728;8.968;2023-05-09T04:09:46;28.00;;;13.50;;
6821;SDS011;3449;48.728;8.968;2023-05-09T04:12:13;25.03;;;12.90;;
6821;SDS011;3449;48.728;8.968;2023-05-09T04:14:40;22.43;;;12.57;;
6821;SDS011;3449;48.728;8.968;2023-05-09T04:17:07;23.10;;;12.33;;
6821;SDS011;3449;48.728;8.968;2023-05-09T04:19:35;29.17;;;13.77;;
6821;SDS011;3449;48.728;8.968;2023-05-09T04:22:02;26.30;;;12.97;;
6821;SDS011;3449;48.728;8.968;2023-05-09T04:24:29;26.70;;;12.23;;
6821;SDS011;3449;48.728;8.968;2023-05-09T04:26:56;22.70;;;11.43;;
6821;SDS011;3449;48.728;8.968;2023-05-09T04:29:23;24.40;;;12.87;;
6821;SDS011;3449;48.728;8.968;2023-05-09T04:31:50;20.13;;;12.10;;
6821;SDS011;3449;48.728;8.968;2023-05-09T04:34:17;25.47;;;11.33;;
6821;SDS011;3449;48.728;8.968;2023-05-09T04:36:46;20.10;;;11.80;;
6821;SDS011;3449;48.728;8.968;2023-05-09T04:39:12;23.80;;;12.10;;
6821;SDS011;3449;48.728;8.968;2023-05-09T04:41:39;22.30;;;10.73;;
6821;SDS011;3449;48.728;8.968;2023-05-09T04:44:08;26.20;;;10.83;;
6821;SDS011;3449;48.728;8.968;2023-05-09T04:46:35;24.70;;;10.47;;
6821;SDS011;3449;48.728;8.968;2023-05-09T04:49:02;16.90;;;10.27;;
6821;SDS011;3449;48.728;8.968;2023-05-09T04:51:29;18.80;;;9.97;;
6821;SDS011;3449;48.728;8.968;2023-05-09T04:53:57;20.73;;;10.80;;
6821;SDS011;3449;48.728;8.968;2023-05-09T04:56:24;21.57;;;11.23;;
6821;SDS011;3449;48.728;8.968;2023-05-09T04:58:51;26.57;;;10.90;;
6821;SDS011;3449;48.728;8.968;2023-05-09T05:01:18;29.17;;;12.20;;
6821;SDS011;3449;48.728;8.968;2023-05-09T05:03:45;20.80;;;11.90;;
6821;SDS011;3449;48.728;8.968;2023-05-09T05:06:12;44.60;;;13.00;;
6821;SDS011;3449;48.728;8.968;2023-05-09T05:08:38;25.40;;;12.17;;
6821;SDS011;3449;48.728;8.968;2023-05-09T05:11:07;25.07;;;12.60;;
6821;SDS011;3449;48.728;8.968;2023-05-09T05:13:34;25.03;;;12.53;;
6821;SDS011;3449;48.728;8.968;2023-05-09T05:16:00;22.23;;;11.37;;
6821;SDS011;3449;48.728;8.968;2023-05-09T05:18:27;25.07;;;10.43;;
6821;SDS011;3449;48.728;8.968;2023-05-09T05:20:54;17.30;;;11.10;;
6821;SDS011;3449;48.728;8.968;2023-05-09T05:23:21;24.87;;;13.07;;
6821;SDS011;3449;48.728;8.968;2023-05-09T05:25:48;20.10;;;11.70;;
6821;SDS011;3449;48.728;8.968;2023-05-09T05:28:16;20.97;;;11.57;;
6821;SDS011;3449;48.728;8.968;2023-05-09T05:30:43;21.33;;;12.30;;
6821;SDS011;3449;48.728;8.968;2023-05-09T05:33:10;21.20;;;11.97;;
6821;SDS011;3449;48.728;8.968;2023-05-09T05:35:37;19.23;;;11.00;;
6821;SDS011;3449;48.728;8.968;2023-05-09T05:38:04;20.57;;;11.73;;
6821;SDS011;3449;48.728;8.968;2023-05-09T05:40:31;25.40;;;11.93;;
6821;SDS011;3449;48.728;8.968;2023-05-09T05:42:57;24.73;;;11.70;;
6821;SDS011;3449;48.728;8.968;2023-05-09T05:45:26;18.03;;;10.63;;
6821;SDS011;3449;48.728;8.968;2023-05-09T05:47:54;27.90;;;12.53;;
6821;SDS011;3449;48.728;8.968;2023-05-09T05:50:21;19.47;;;11.07;;
6821;SDS011;3449;48.728;8.968;2023-05-09T05:52:48;19.63;;;11.57;;
6821;SDS011;3449;48.728;8.968;2023-05-09T05:55:15;21.43;;;10.87;;
6821;SDS011;3449;48.728;8.968;2023-05-09T05:57:42;19.63;;;10.80;;
6821;SDS011;3449;48.728;8.968;2023-05-09T06:00:09;25.50;;;12.23;;
6821;SDS011;3449;48.728;8.968;2023-05-09T06:02:40;21.63;;;10.30;;
6821;SDS011;3449;48.728;8.968;2023-05-09T06:05:07;16.97;;;9.87;;
6821;SDS011;3449;48.728;8.968;2023-05-09T06:07:35;23.00;;;12.37;;
6821;SDS011;3449;48.728;8.968;2023-05-09T06:10:02;27.87;;;10.40;;
6821;SDS011;3449;48.728;8.968;2023-05-09T06:12:29;18.30;;;11.00;;
6821;SDS011;3449;48.728;8.968;2023-05-09T06:14:56;14.40;;;9.57;;
6821;SDS011;3449;48.728;8.968;2023-05-09T06:17:23;18.73;;;10.43;;
6821;SDS011;3449;48.728;8.968;2023-05-09T06:19:51;17.80;;;10.20;;
6821;SDS011;3449;48.728;8.968;2023-05-09T06:22:18;13.47;;;9.20;;
6821;SDS011;3449;48.728;8.968;2023-05-09T06:24:45;14.43;;;9.53;;
6821;SDS011;3449;48.728;8.968;2023-05-09T06:27:12;14.90;;;9.17;;
6821;SDS011;3449;48.728;8.968;2023-05-09T06:29:39;17.07;;;9.00;;
6821;SDS011;3449;48.728;8.968;2023-05-09T06:32:06;15.70;;;9.40;;
6821;SDS011;3449;48.728;8.968;2023-05-09T06:34:33;14.57;;;8.57;;
6821;SDS011;3449;48.728;8.968;2023-05-09T06:37:01;12.27;;;9.00;;
6821;SDS011;3449;48.728;8.968;2023-05-09T06:39:28;13.30;;;8.33;;
6821;SDS011;3449;48.728;8.968;2023-05-09T06:41:55;13.50;;;8.27;;
6821;SDS011;3449;48.728;8.968;2023-05-09T06:44:22;13.77;;;7.60;;
6821;SDS011;3449;48.728;8.968;2023-05-09T06:46:48;15.20;;;8.80;;
6821;SDS011;3449;48.728;8.968;2023-05-09T06:49:16;14.83;;;8.07;;
6821;SDS011;3449;48.728;8.968;2023-05-09T06:51:42;10.20;;;6.80;;
6821;SDS011;3449;48.728;8.968;2023-05-09T06:54:11;12.93;;;7.67;;
6821;SDS011;3449;48.728;8.968;2023-05-09T06:56:37;7.93;;;6.77;;
6821;SDS011;3449;48.728;8.968;2023-05-09T06:59:04;10.73;;;7.47;;
6821;SDS011;3449;48.728;8.968;2023-05-09T07:01:31;10.40;;;7.40;;
6821;SDS011;3449;48.728;8.968;2023-05-09T07:03:58;11.20;;;7.10;;
6821;SDS011;3449;48.728;8.968;2023-05-09T07:06:25;7.73;;;5.70;;
6821;SDS011;3449;48.728;8.968;2023-05-09T07:08:52;9.90;;;7.03;;
6821;SDS011;3449;48.728;8.968;2023-05-09T07:11:20;8.63;;;6.33;;
6821;SDS011;3449;48.728;8.968;2023-05-09T07:13:47;7.80;;;6.40;;
6821;SDS011;3449;48.728;8.968;2023-05-09T07:16:14;9.10;;;6.97;;
6821;SDS011;3449;48.728;8.968;2023-05-09T07:18:42;6.73;;;6.00;;
6821;SDS011;3449;48.728;8.968;2023-05-09T07:21:09;10.57;;;6.10;;
6821;SDS011;3449;48.728;8.968;2023-05-09T07:23:36;8.67;;;6.33;;
6821;SDS011;3449;48.728;8.968;2023-05-09T07:26:02;9.00;;;6.00;;
6821;SDS011;3449;48.728;8.968;2023-05-09T07:28:31;7.33;;;5.63;;
6821;SDS011;3449;48.728;8.968;2023-05-09T07:30:58;8.00;;;5.67;;
6821;SDS011;3449;48.728;8.968;2023-05-09T07:33:24;7.47;;;6.20;;
6821;SDS011;3449;48.728;8.968;2023-05-09T07:35:51;6.30;;;5.57;;
6821;SDS011;3449;48.728;8.968;2023-05-09T07:38:18;7.60;;;5.90;;
6821;SDS011;3449;48.728;8.968;2023-05-09T07:40:45;10.20;;;6.40;;
6821;SDS011;3449;48.728;8.968;2023-05-09T07:43:12;8.10;;;5.30;;
6821;SDS011;3449;48.728;8.968;2023-05-09T07:45:40;7.70;;;5.77;;
6821;SDS011;3449;48.728;8.968;2023-05-09T07:48:07;8.77;;;6.13;;
6821;SDS011;3449;48.728;8.968;2023-05-09T07:50:34;9.20;;;6.27;;
6821;SDS011;3449;48.728;8.968;2023-05-09T07:53:01;8.43;;;5.77;;
6821;SDS011;3449;48.728;8.968;2023-05-09T07:55:28;7.57;;;6.10;;
6821;SDS011;3449;48.728;8.968;2023-05-09T07:57:55;10.57;;;5.93;;
6821;SDS011;3449;48.728;8.968;2023-05-09T08:00:22;8.67;;;6.60;;
6821;SDS011;3449;48.728;8.968;2023-05-09T08:02:50;10.50;;;6.77;;
6821;SDS011;3449;48.728;8.968;2023-05-09T08:05:18;10.73;;;6.10;;
6821;SDS011;3449;48.728;8.968;2023-05-09T08:07:45;8.00;;;5.77;;
6821;SDS011;3449;48.728;8.968;2023-05-09T08:10:11;8.93;;;6.37;;
6821;SDS011;3449;48.728;8.968;2023-05-09T08:12:38;8.73;;;6.20;;
6821;SDS011;3449;48.728;8.968;2023-05-09T08:15:06;7.13;;;6.07;;
6821;SDS011;3449;48.728;8.968;2023-05-09T08:17:33;9.00;;;5.73;;
6821;SDS011;3449;48.728;8.968;2023-05-09T08:20:01;8.77;;;6.90;;
6821;SDS011;3449;48.728;8.968;2023-05-09T08:22:30;6.90;;;5.10;;
6821;SDS011;3449;48.728;8.968;2023-05-09T08:24:56;9.77;;;6.80;;
6821;SDS011;3449;48.728;8.968;2023-05-09T08:27:23;10.20;;;6.67;;
6821;SDS011;3449;48.728;8.968;2023-05-09T08:29:50;6.33;;;5.27;;
6821;SDS011;3449;48.728;8.968;2023-05-09T08:32:17;9.70;;;6.90;;
6821;SDS011;3449;48.728;8.968;2023-05-09T08:34:45;9.67;;;5.60;;
6821;SDS011;3449;48.728;8.968;2023-05-09T08:37:13;7.67;;;5.30;;
6821;SDS011;3449;48.728;8.968;2023-05-09T08:39:40;9.07;;;6.23;;
6821;SDS011;3449;48.728;8.968;2023-05-09T08:42:07;9.00;;;6.03;;
6821;SDS011;3449;48.728;8.968;2023-05-09T08:44:34;8.93;;;6.43;;
6821;SDS011;3449;48.728;8.968;2023-05-09T08:47:02;7.07;;;5.70;;
6821;SDS011;3449;48.728;8.968;2023-05-09T08:49:29;7.17;;;5.50;;
6821;SDS011;3449;48.728;8.968;2023-05-09T08:51:57;9.23;;;5.60;;
6821;SDS011;3449;48.728;8.968;2023-05-09T08:54:26;10.17;;;5.80;;
6821;SDS011;3449;48.728;8.968;2023-05-09T08:56:54;8.10;;;5.60;;
6821;SDS011;3449;48.728;8.968;2023-05-09T08:59:21;7.60;;;5.00;;
6821;SDS011;3449;48.728;8.968;2023-05-09T09:01:49;14.23;;;6.00;;
6821;SDS011;3449;48.728;8.968;2023-05-09T09:04:18;6.27;;;4.80;;
6821;SDS011;3449;48.728;8.968;2023-05-09T09:06:45;9.60;;;4.77;;
6821;SDS011;3449;48.728;8.968;2023-05-09T09:09:12;7.23;;;4.50;;
6821;SDS011;3449;48.728;8.968;2023-05-09T09:11:43;6.83;;;3.90;;
6821;SDS011;3449;48.728;8.968;2023-05-09T09:14:12;4.50;;;3.63;;
6821;SDS011;3449;48.728;8.968;2023-05-09T09:16:42;4.70;;;4.30;;
6821;SDS011;3449;48.728;8.968;2023-05-09T09:19:12;9.53;;;4.70;;
6821;SDS011;3449;48.728;8.968;2023-05-09T09:21:43;5.50;;;4.47;;
6821;SDS011;3449;48.728;8.968;2023-05-09T09:24:12;5.33;;;4.10;;
6821;SDS011;3449;48.728;8.968;2023-05-09T09:26:46;3.47;;;3.17;;
6821;SDS011;3449;48.728;8.968;2023-05-09T09:29:16;4.20;;;3.80;;
6821;SDS011;3449;48.728;8.968;2023-05-09T09:31:44;3.80;;;3.40;;
6821;SDS011;3449;48.728;8.968;2023-05-09T09:34:13;4.33;;;3.93;;
6821;SDS011;3449;48.728;8.968;2023-05-09T09:36:45;4.80;;;3.40;;
6821;SDS011;3449;48.728;8.968;2023-05-09T09:39:13;4.10;;;3.33;;
6821;SDS011;3449;48.728;8.968;2023-05-09T09:41:40;3.63;;;3.27;;
6821;SDS011;3449;48.728;8.968;2023-05-09T09:44:10;4.53;;;3.07;;
6821;SDS011;3449;48.728;8.968;2023-05-09T09:46:42;7.03;;;3.40;;
6821;SDS011;3449;48.728;8.968;2023-05-09T09:49:10;4.43;;;3.27;;
6821;SDS011;3449;48.728;8.968;2023-05-09T09:51:38;9.20;;;4.67;;
6821;SDS011;3449;48.728;8.968;2023-05-09T09:54:05;5.77;;;4.20;;
6821;SDS011;3449;48.728;8.968;2023-05-09T09:56:42;5.93;;;4.60;;
6821;SDS011;3449;48.728;8.968;2023-05-09T09:59:12;4.93;;;4.43;;
6821;SDS011;3449;48.728;8.968;2023-05-09T10:01:58;5.33;;;3.67;;
6821;SDS011;3449;48.728;8.968;2023-05-09T10:04:27;4.03;;;3.60;;
6821;SDS011;3449;48.728;8.968;2023-05-09T10:06:56;8.70;;;4.80;;
6821;SDS011;3449;48.728;8.968;2023-05-09T10:09:24;4.10;;;3.70;;
6821;SDS011;3449;48.728;8.968;2023-05-09T10:11:52;5.03;;;3.87;;
6821;SDS011;3449;48.728;8.968;2023-05-09T10:14:22;3.97;;;3.60;;
6821;SDS011;3449;48.728;8.968;2023-05-09T10:16:51;4.17;;;3.77;;
6821;SDS011;3449;48.728;8.968;2023-05-09T10:19:21;8.27;;;4.73;;
6821;SDS011;3449;48.728;8.968;2023-05-09T10:21:50;3.73;;;3.33;;
6821;SDS011;3449;48.728;8.968;2023-05-09T10:24:20;4.70;;;4.17;;
6821;SDS011;3449;48.728;8.968;2023-05-09T10:26:52;6.90;;;4.43;;
6821;SDS011;3449;48.728;8.968;2023-05-09T10:29:27;4.73;;;3.90;;
6821;SDS011;3449;48.728;8.968;2023-05-09T10:31:58;3.97;;;3.63;;
6821;SDS011;3449;48.728;8.968;2023-05-09T10:34:30;5.43;;;3.70;;
6821;SDS011;3449;48.728;8.968;2023-05-09T10:36:59;5.73;;;4.70;;
6821;SDS011;3449;48.728;8.968;2023-05-09T10:39:27;5.70;;;4.20;;
6821;SDS011;3449;48.728;8.968;2023-05-09T10:41:56;3.97;;;3.57;;
6821;SDS011;3449;48.728;8.968;2023-05-09T10:44:23;4.20;;;3.63;;
6821;SDS011;3449;48.728;8.968;2023-05-09T10:46:52;6.27;;;4.90;;
6821;SDS011;3449;48.728;8.968;2023-05-09T10:49:19;3.93;;;3.47;;
6821;SDS011;3449;48.728;8.968;2023-05-09T10:51:48;4.07;;;3.30;;
6821;SDS011;3449;48.728;8.968;2023-05-09T10:54:25;8.50;;;3.60;;
6821;SDS011;3449;48.728;8.968;2023-05-09T10:56:53;4.03;;;3.63;;
6821;SDS011;3449;48.728;8.968;2023-05-09T10:59:32;3.67;;;3.37;;
6821;SDS011;3449;48.728;8.968;2023-05-09T11:02:03;4.13;;;2.60;;
6821;SDS011;3449;48.728;8.968;2023-05-09T11:04:31;2.60;;;2.40;;
6821;SDS011;3449;48.728;8.968;2023-05-09T11:06:58;2.57;;;2.37;;
6821;SDS011;3449;48.728;8.968;2023-05-09T11:09:29;2.83;;;2.47;;
6821;SDS011;3449;48.728;8.968;2023-05-09T11:12:08;3.33;;;2.07;;
6821;SDS011;3449;48.728;8.968;2023-05-09T11:14:38;2.17;;;2.07;;
6821;SDS011;3449;48.728;8.968;2023-05-09T11:17:09;3.23;;;1.80;;
6821;SDS011;3449;48.728;8.968;2023-05-09T11:22:24;2.63;;;2.43;;
6821;SDS011;3449;48.728;8.968;2023-05-09T11:24:58;2.80;;;2.60;;
6821;SDS011;3449;48.728;8.968;2023-05-09T11:27:27;4.73;;;2.30;;
6821;SDS011;3449;48.728;8.968;2023-05-09T11:30:03;2.37;;;2.13;;
6821;SDS011;3449;48.728;8.968;2023-05-09T11:32:33;2.20;;;2.00;;
6821;SDS011;3449;48.728;8.968;2023-05-09T11:35:06;2.60;;;2.27;;
6821;SDS011;3449;48.728;8.968;2023-05-09T11:37:38;1.87;;;1.77;;
6821;SDS011;3449;48.728;8.968;2023-05-09T11:40:10;2.90;;;2.53;;
6821;SDS011;3449;48.728;8.968;2023-05-09T11:42:40;2.00;;;1.90;;
6821;SDS011;3449;48.728;8.968;2023-05-09T11:45:08;1.93;;;1.70;;
6821;SDS011;3449;48.728;8.968;2023-05-09T11:47:37;2.73;;;2.10;;
6821;SDS011;3449;48.728;8.968;2023-05-09T11:50:06;1.87;;;1.77;;
6821;SDS011;3449;48.728;8.968;2023-05-09T11:52:34;2.73;;;2.50;;
6821;SDS011;3449;48.728;8.968;2023-05-09T11:55:01;2.10;;;2.00;;
6821;SDS011;3449;48.728;8.968;2023-05-09T11:57:28;3.00;;;1.73;;
6821;SDS011;3449;48.728;8.968;2023-05-09T11:59:55;1.80;;;1.70;;
6821;SDS011;3449;48.728;8.968;2023-05-09T12:02:22;2.10;;;1.90;;
6821;SDS011;3449;48.728;8.968;2023-05-09T12:04:50;1.87;;;1.77;;
6821;SDS011;3449;48.728;8.968;2023-05-09T12:07:18;5.50;;;2.40;;
6821;SDS011;3449;48.728;8.968;2023-05-09T12:09:45;2.30;;;2.10;;
6821;SDS011;3449;48.728;8.968;2023-05-09T12:12:14;2.77;;;2.47;;
6821;SDS011;3449;48.728;8.968;2023-05-09T12:14:44;2.70;;;2.00;;
6821;SDS011;3449;48.728;8.968;2023-05-09T12:17:13;2.87;;;2.43;;
6821;SDS011;3449;48.728;8.968;2023-05-09T12:19:40;6.40;;;2.20;;
6821;SDS011;3449;48.728;8.968;2023-05-09T12:22:08;3.33;;;3.03;;
6821;SDS011;3449;48.728;8.968;2023-05-09T12:24:35;2.80;;;2.43;;
6821;SDS011;3449;48.728;8.968;2023-05-09T12:27:02;2.63;;;2.37;;
6821;SDS011;3449;48.728;8.968;2023-05-09T12:29:32;3.67;;;2.30;;
6821;SDS011;3449;48.728;8.968;2023-05-09T12:31:59;3.70;;;2.53;;
6821;SDS011;3449;48.728;8.968;2023-05-09T12:34:26;2.80;;;2.50;;
6821;SDS011;3449;48.728;8.968;2023-05-09T12:36:54;3.20;;;2.43;;
6821;SDS011;3449;48.728;8.968;2023-05-09T12:39:23;4.03;;;2.70;;
6821;SDS011;3449;48.728;8.968;2023-05-09T12:41:51;2.23;;;2.03;;
6821;SDS011;3449;48.728;8.968;2023-05-09T12:44:19;2.57;;;2.37;;
6821;SDS011;3449;48.728;8.968;2023-05-09T12:46:56;3.07;;;2.70;;
6821;SDS011;3449;48.728;8.968;2023-05-09T12:49:24;3.03;;;2.73;;
6821;SDS011;3449;48.728;8.968;2023-05-09T12:51:53;2.50;;;2.30;;
6821;SDS011;3449;48.728;8.968;2023-05-09T12:54:20;3.53;;;2.53;;
6821;SDS011;3449;48.728;8.968;2023-05-09T12:56:49;3.50;;;1.47;;
6821;SDS011;3449;48.728;8.968;2023-05-09T12:59:20;2.27;;;2.17;;
6821;SDS011;3449;48.728;8.968;2023-05-09T13:01:51;2.53;;;2.13;;
6821;SDS011;3449;48.728;8.968;2023-05-09T13:04:20;2.97;;;2.53;;
6821;SDS011;3449;48.728;8.968;2023-05-09T13:06:48;3.00;;;2.67;;
6821;SDS011;3449;48.728;8.968;2023-05-09T13:09:15;3.17;;;2.20;;
6821;SDS011;3449;48.728;8.968;2023-05-09T13:11:43;1.50;;;1.40;;
6821;SDS011;3449;48.728;8.968;2023-05-09T13:14:12;1.97;;;1.83;;
6821;SDS011;3449;48.728;8.968;2023-05-09T13:16:39;2.30;;;2.10;;
6821;SDS011;3449;48.728;8.968;2023-05-09T13:19:06;1.60;;;1.50;;
6821;SDS011;3449;48.728;8.968;2023-05-09T13:21:33;3.43;;;1.90;;
6821;SDS011;3449;48.728;8.968;2023-05-09T13:24:00;2.60;;;1.90;;
6821;SDS011;3449;48.728;8.968;2023-05-09T13:26:28;4.53;;;1.77;;
6821;SDS011;3449;48.728;8.968;2023-05-09T13:28:55;2.20;;;1.37;;
6821;SDS011;3449;48.728;8.968;2023-05-09T13:31:23;1.70;;;1.40;;
6821;SDS011;3449;48.728;8.968;2023-05-09T13:33:50;3.40;;;1.43;;
6821;SDS011;3449;48.728;8.968;2023-05-09T13:36:17;1.70;;;1.60;;
6821;SDS011;3449;48.728;8.968;2023-05-09T13:38:44;1.57;;;1.47;;
6821;SDS011;3449;48.728;8.968;2023-05-09T13:41:11;2.83;;;1.80;;
6821;SDS011;3449;48.728;8.968;2023-05-09T13:43:43;2.17;;;1.87;;
6821;SDS011;3449;48.728;8.968;2023-05-09T13:46:11;2.57;;;1.50;;
6821;SDS011;3449;48.728;8.968;2023-05-09T13:48:39;2.13;;;1.87;;
6821;SDS011;3449;48.728;8.968;2023-05-09T13:51:06;2.13;;;1.93;;
6821;SDS011;3449;48.728;8.968;2023-05-09T13:53:34;2.20;;;2.00;;
6821;SDS011;3449;48.728;8.968;2023-05-09T13:56:00;2.73;;;1.60;;
6821;SDS011;3449;48.728;8.968;2023-05-09T13:58:27;2.27;;;1.87;;
6821;SDS011;3449;48.728;8.968;2023-05-09T14:00:54;1.77;;;1.63;;
6821;SDS011;3449;48.728;8.968;2023-05-09T14:03:21;1.87;;;1.77;;
6821;SDS011;3449;48.728;8.968;2023-05-09T14:05:49;1.60;;;1.50;;
6821;SDS011;3449;48.728;8.968;2023-05-09T14:08:16;1.50;;;1.40;;
6821;SDS011;3449;48.728;8.968;2023-05-09T14:10:43;1.67;;;1.57;;
6821;SDS011;3449;48.728;8.968;2023-05-09T14:13:10;1.57;;;1.47;;
6821;SDS011;3449;48.728;8.968;2023-05-09T14:15:39;1.90;;;1.80;;
6821;SDS011;3449;48.728;8.968;2023-05-09T14:18:06;3.40;;;1.50;;
6821;SDS011;3449;48.728;8.968;2023-05-09T14:20:33;1.60;;;1.50;;
6821;SDS011;3449;48.728;8.968;2023-05-09T14:23:02;1.70;;;1.60;;
6821;SDS011;3449;48.728;8.968;2023-05-09T14:25:29;1.67;;;1.57;;
6821;SDS011;3449;48.728;8.968;2023-05-09T14:27:56;1.80;;;1.67;;
6821;SDS011;3449;48.728;8.968;2023-05-09T14:30:24;1.90;;;1.80;;
6821;SDS011;3449;48.728;8.968;2023-05-09T14:32:51;2.23;;;1.30;;
6821;SDS011;3449;48.728;8.968;2023-05-09T14:35:18;2.27;;;2.03;;
6821;SDS011;3449;48.728;8.968;2023-05-09T14:37:45;3.20;;;1.83;;
6821;SDS011;3449;48.728;8.968;2023-05-09T14:40:13;1.47;;;1.27;;
6821;SDS011;3449;48.728;8.968;2023-05-09T14:42:40;2.77;;;1.50;;
6821;SDS011;3449;48.728;8.968;2023-05-09T14:45:08;1.37;;;1.27;;
6821;SDS011;3449;48.728;8.968;2023-05-09T14:47:36;1.97;;;1.70;;
6821;SDS011;3449;48.728;8.968;2023-05-09T14:50:05;1.90;;;1.80;;
6821;SDS011;3449;48.728;8.968;2023-05-09T14:52:35;2.63;;;1.67;;
6821;SDS011;3449;48.728;8.968;2023-05-09T14:55:02;4.03;;;1.70;;
6821;SDS011;3449;48.728;8.968;2023-05-09T14:57:32;2.07;;;1.47;;
6821;SDS011;3449;48.728;8.968;2023-05-09T14:59:59;1.43;;;1.33;;
6821;SDS011;3449;48.728;8.968;2023-05-09T15:02:26;2.30;;;1.60;;
6821;SDS011;3449;48.728;8.968;2023-05-09T15:04:53;1.70;;;1.60;;
6821;SDS011;3449;48.728;8.968;2023-05-09T15:07:20;1.50;;;1.40;;
6821;SDS011;3449;48.728;8.968;2023-05-09T15:09:47;1.50;;;1.40;;
6821;SDS011;3449;48.728;8.968;2023-05-09T15:12:14;2.00;;;1.53;;